sensor_id;sensor_type;location;lat;lon;timestamp;pressure;altitude;pressure_sealevel;temperature;humidity
18918;BME280;9591;52.742;13.650;2024-02-21T00:01:24;101460.97;;;22.09;34.17
18918;BME280;9591;52.742;13.650;2024-02-21T00:04:11;101459.09;;;21.97;34.27
18918;BME280;9591;52.742;13.650;2024-02-21T00:06:59;101451.13;;;21.15;35.25
18918;BME280;9591;52.742;13.650;2024-02-21T00:09:46;101447.84;;;22.17;34.01
18918;BME280;9591;52.742;13.650;2024-02-21T00:12:32;101451.38;;;22.05;34.28
18918;BME280;9591;52.742;13.650;2024-02-21T00:15:19;101437.75;;;21.27;35.02
18918;BME280;9591;52.742;13.650;2024-02-21T00:18:08;101436.25;;;21.50;35.13
18918;BME280;9591;52.742;13.650;2024-02-21T00:20:56;101437.34;;;21.73;34.72
18918;BME280;9591;52.742;13.650;2024-02-21T00:23:43;101436.75;;;21.82;34.56
18918;BME280;9591;52.742;13.650;2024-02-21T00:26:31;101435.09;;;22.19;34.16
18918;BME280;9591;52.742;13.650;2024-02-21T00:29:18;101438.16;;;21.88;34.39
18918;BME280;9591;52.742;13.650;2024-02-21T00:32:05;101437.19;;;21.89;34.49
18918;BME280;9591;52.742;13.650;2024-02-21T00:34:53;101436.28;;;21.76;34.58
18918;BME280;9591;52.742;13.650;2024-02-21T00:37:40;101440.38;;;22.08;34.14
18918;BME280;9591;52.742;13.650;2024-02-21T00:40:27;101435.56;;;21.86;34.57
18918;BME280;9591;52.742;13.650;2024-02-21T00:43:14;101435.47;;;21.48;35.11
18918;BME280;9591;52.742;13.650;2024-02-21T00:46:01;101429.13;;;21.49;34.93
18918;BME280;9591;52.742;13.650;2024-02-21T00:48:47;101422.94;;;21.87;34.62
18918;BME280;9591;52.742;13.650;2024-02-21T00:51:36;101417.50;;;22.14;34.15
18918;BME280;9591;52.742;13.650;2024-02-21T00:54:24;101418.44;;;22.00;34.13
18918;BME280;9591;52.742;13.650;2024-02-21T00:57:16;101417.31;;;21.77;34.50
18918;BME280;9591;52.742;13.650;2024-02-21T01:00:03;101413.66;;;21.91;34.53
18918;BME280;9591;52.742;13.650;2024-02-21T01:02:51;101414.22;;;21.03;35.82
18918;BME280;9591;52.742;13.650;2024-02-21T01:05:38;101408.56;;;21.74;34.94
18918;BME280;9591;52.742;13.650;2024-02-21T01:08:26;101406.59;;;22.15;34.21
18918;BME280;9591;52.742;13.650;2024-02-21T01:11:13;101397.00;;;21.46;35.13
18918;BME280;9591;52.742;13.650;2024-02-21T01:14:00;101396.16;;;21.71;34.91
18918;BME280;9591;52.742;13.650;2024-02-21T01:16:47;101387.72;;;21.50;34.66
18918;BME280;9591;52.742;13.650;2024-02-21T01:19:34;101394.47;;;21.96;34.03
18918;BME280;9591;52.742;13.650;2024-02-21T01:22:21;101388.63;;;21.10;35.70
18918;BME280;9591;52.742;13.650;2024-02-21T01:25:09;101387.69;;;21.90;34.39
18918;BME280;9591;52.742;13.650;2024-02-21T01:27:56;101385.19;;;21.62;34.69
18918;BME280;9591;52.742;13.650;2024-02-21T01:30:43;101383.00;;;21.67;34.46
18918;BME280;9591;52.742;13.650;2024-02-21T01:33:29;101380.41;;;20.84;35.98
18918;BME280;9591;52.742;13.650;2024-02-21T01:36:20;101377.75;;;21.25;35.20
18918;BME280;9591;52.742;13.650;2024-02-21T01:39:07;101375.81;;;21.27;35.31
18918;BME280;9591;52.742;13.650;2024-02-21T01:41:55;101373.81;;;22.09;33.85
18918;BME280;9591;52.742;13.650;2024-02-21T01:44:42;101372.69;;;21.86;34.36
18918;BME280;9591;52.742;13.650;2024-02-21T01:47:29;101366.03;;;21.39;34.80
18918;BME280;9591;52.742;13.650;2024-02-21T01:50:16;101363.63;;;22.00;34.06
18918;BME280;9591;52.742;13.650;2024-02-21T01:53:03;101371.25;;;21.68;34.52
18918;BME280;9591;52.742;13.650;2024-02-21T01:55:50;101358.34;;;21.60;34.50
18918;BME280;9591;52.742;13.650;2024-02-21T01:58:42;101355.66;;;21.98;34.11
18918;BME280;9591;52.742;13.650;2024-02-21T02:01:29;101358.53;;;20.76;35.65
18918;BME280;9591;52.742;13.650;2024-02-21T02:04:16;101346.38;;;21.64;34.79
18918;BME280;9591;52.742;13.650;2024-02-21T02:07:04;101343.69;;;21.24;35.16
18918;BME280;9591;52.742;13.650;2024-02-21T02:09:53;101340.75;;;21.54;34.72
18918;BME280;9591;52.742;13.650;2024-02-21T02:12:39;101332.50;;;20.77;36.04
18918;BME280;9591;52.742;13.650;2024-02-21T02:15:37;101333.84;;;21.76;34.62
18918;BME280;9591;52.742;13.650;2024-02-21T02:18:24;101327.94;;;21.58;34.75
18918;BME280;9591;52.742;13.650;2024-02-21T02:21:16;101326.72;;;21.49;34.79
18918;BME280;9591;52.742;13.650;2024-02-21T02:24:11;101328.38;;;20.71;36.14
18918;BME280;9591;52.742;13.650;2024-02-21T02:26:59;101321.53;;;21.46;35.30
18918;BME280;9591;52.742;13.650;2024-02-21T02:29:45;101314.13;;;21.50;35.03
18918;BME280;9591;52.742;13.650;2024-02-21T02:32:32;101316.34;;;21.31;34.91
18918;BME280;9591;52.742;13.650;2024-02-21T02:35:19;101309.53;;;21.25;35.19
18918;BME280;9591;52.742;13.650;2024-02-21T02:38:06;101302.28;;;20.30;36.64
18918;BME280;9591;52.742;13.650;2024-02-21T02:40:54;101306.06;;;21.23;35.47
18918;BME280;9591;52.742;13.650;2024-02-21T02:43:41;101310.88;;;21.45;35.50
18918;BME280;9591;52.742;13.650;2024-02-21T02:46:28;101301.72;;;21.73;34.58
18918;BME280;9591;52.742;13.650;2024-02-21T02:49:15;101306.41;;;20.36;36.75
18918;BME280;9591;52.742;13.650;2024-02-21T02:52:02;101302.25;;;20.59;36.98
18918;BME280;9591;52.742;13.650;2024-02-21T02:54:49;101296.31;;;21.35;35.81
18918;BME280;9591;52.742;13.650;2024-02-21T02:57:38;101291.72;;;20.95;36.53
18918;BME280;9591;52.742;13.650;2024-02-21T03:00:26;101285.28;;;20.16;37.75
18918;BME280;9591;52.742;13.650;2024-02-21T03:03:13;101287.16;;;20.83;36.83
18918;BME280;9591;52.742;13.650;2024-02-21T03:06:00;101286.69;;;20.64;37.39
18918;BME280;9591;52.742;13.650;2024-02-21T03:08:47;101284.66;;;21.34;36.39
18918;BME280;9591;52.742;13.650;2024-02-21T03:11:35;101281.34;;;21.16;37.04
18918;BME280;9591;52.742;13.650;2024-02-21T03:14:24;101267.72;;;20.92;36.98
18918;BME280;9591;52.742;13.650;2024-02-21T03:17:11;101269.13;;;21.25;36.53
18918;BME280;9591;52.742;13.650;2024-02-21T03:19:58;101256.31;;;21.02;37.33
18918;BME280;9591;52.742;13.650;2024-02-21T03:22:45;101262.06;;;21.49;36.47
18918;BME280;9591;52.742;13.650;2024-02-21T03:25:32;101262.69;;;21.78;36.19
18918;BME280;9591;52.742;13.650;2024-02-21T03:28:19;101263.13;;;20.80;37.72
18918;BME280;9591;52.742;13.650;2024-02-21T03:31:07;101255.69;;;20.44;38.67
18918;BME280;9591;52.742;13.650;2024-02-21T03:33:54;101257.94;;;19.95;39.68
18918;BME280;9591;52.742;13.650;2024-02-21T03:36:41;101257.28;;;20.61;38.75
18918;BME280;9591;52.742;13.650;2024-02-21T03:39:31;101252.16;;;21.63;36.99
18918;BME280;9591;52.742;13.650;2024-02-21T03:42:17;101257.28;;;21.27;37.42
18918;BME280;9591;52.742;13.650;2024-02-21T03:45:05;101241.91;;;21.15;38.27
18918;BME280;9591;52.742;13.650;2024-02-21T03:47:54;101233.66;;;19.82;40.91
18918;BME280;9591;52.742;13.650;2024-02-21T03:50:40;101233.38;;;20.96;38.66
18918;BME280;9591;52.742;13.650;2024-02-21T03:53:27;101217.72;;;20.76;39.05
18918;BME280;9591;52.742;13.650;2024-02-21T03:56:14;101219.91;;;21.61;37.52
18918;BME280;9591;52.742;13.650;2024-02-21T03:59:01;101219.56;;;21.27;37.97
18918;BME280;9591;52.742;13.650;2024-02-21T04:01:51;101225.72;;;21.30;38.00
18918;BME280;9591;52.742;13.650;2024-02-21T04:04:42;101219.81;;;21.63;37.44
18918;BME280;9591;52.742;13.650;2024-02-21T04:07:32;101222.06;;;21.56;37.54
18918;BME280;9591;52.742;13.650;2024-02-21T04:10:18;101220.44;;;21.28;38.37
18918;BME280;9591;52.742;13.650;2024-02-21T04:13:06;101209.56;;;21.03;38.81
18918;BME280;9591;52.742;13.650;2024-02-21T04:15:53;101213.34;;;21.00;38.73
18918;BME280;9591;52.742;13.650;2024-02-21T04:18:40;101202.22;;;20.79;39.47
18918;BME280;9591;52.742;13.650;2024-02-21T04:21:28;101194.16;;;21.44;37.83
18918;BME280;9591;52.742;13.650;2024-02-21T04:24:15;101179.50;;;20.44;40.11
18918;BME280;9591;52.742;13.650;2024-02-21T04:27:02;101181.22;;;21.37;38.30
18918;BME280;9591;52.742;13.650;2024-02-21T04:29:49;101166.53;;;20.36;40.10
18918;BME280;9591;52.742;13.650;2024-02-21T04:32:35;101169.50;;;20.32;40.36
18918;BME280;9591;52.742;13.650;2024-02-21T04:35:22;101159.03;;;20.00;41.05
18918;BME280;9591;52.742;13.650;2024-02-21T04:38:10;101165.16;;;20.70;39.79
18918;BME280;9591;52.742;13.650;2024-02-21T04:40:57;101152.06;;;21.16;39.09
18918;BME280;9591;52.742;13.650;2024-02-21T04:43:45;101159.38;;;20.76;39.68
18918;BME280;9591;52.742;13.650;2024-02-21T04:46:32;101147.38;;;20.55;40.42
18918;BME280;9591;52.742;13.650;2024-02-21T04:49:19;101143.84;;;20.67;39.98
18918;BME280;9591;52.742;13.650;2024-02-21T04:52:06;101132.28;;;21.30;38.89
18918;BME280;9591;52.742;13.650;2024-02-21T04:54:54;101136.28;;;20.33;40.21
18918;BME280;9591;52.742;13.650;2024-02-21T04:57:41;101144.19;;;21.01;39.26
18918;BME280;9591;52.742;13.650;2024-02-21T05:00:28;101131.72;;;21.00;39.39
18918;BME280;9591;52.742;13.650;2024-02-21T05:03:15;101130.34;;;21.57;38.18
18918;BME280;9591;52.742;13.650;2024-02-21T05:06:02;101134.72;;;20.95;39.42
18918;BME280;9591;52.742;13.650;2024-02-21T05:08:49;101137.19;;;20.85;39.67
18918;BME280;9591;52.742;13.650;2024-02-21T05:11:37;101149.22;;;20.67;40.21
18918;BME280;9591;52.742;13.650;2024-02-21T05:14:24;101143.13;;;21.16;38.93
18918;BME280;9591;52.742;13.650;2024-02-21T05:17:12;101145.94;;;21.02;39.21
18918;BME280;9591;52.742;13.650;2024-02-21T05:19:59;101137.34;;;20.57;40.00
18918;BME280;9591;52.742;13.650;2024-02-21T05:22:46;101135.50;;;21.48;38.66
18918;BME280;9591;52.742;13.650;2024-02-21T05:25:32;101121.19;;;21.47;38.06
18918;BME280;9591;52.742;13.650;2024-02-21T05:28:21;101123.03;;;21.21;38.53
18918;BME280;9591;52.742;13.650;2024-02-21T05:31:08;101122.50;;;21.29;38.38
18918;BME280;9591;52.742;13.650;2024-02-21T05:33:57;101120.72;;;20.77;39.46
18918;BME280;9591;52.742;13.650;2024-02-21T05:36:47;101111.50;;;21.32;38.40
18918;BME280;9591;52.742;13.650;2024-02-21T05:39:35;101122.34;;;20.80;39.09
18918;BME280;9591;52.742;13.650;2024-02-21T05:42:22;101123.47;;;21.28;38.51
18918;BME280;9591;52.742;13.650;2024-02-21T05:45:10;101126.69;;;20.55;40.07
18918;BME280;9591;52.742;13.650;2024-02-21T05:47:57;101113.97;;;19.91;41.53
18918;BME280;9591;52.742;13.650;2024-02-21T05:50:45;101107.03;;;20.80;39.71
18918;BME280;9591;52.742;13.650;2024-02-21T05:53:31;101103.34;;;20.56;39.53
18918;BME280;9591;52.742;13.650;2024-02-21T05:56:18;101109.97;;;19.27;42.46
18918;BME280;9591;52.742;13.650;2024-02-21T05:59:05;101108.03;;;20.40;40.54
18918;BME280;9591;52.742;13.650;2024-02-21T06:01:59;101106.38;;;20.89;39.11
18918;BME280;9591;52.742;13.650;2024-02-21T06:04:49;101094.63;;;19.72;41.22
18918;BME280;9591;52.742;13.650;2024-02-21T06:07:36;101093.63;;;20.41;40.31
18918;BME280;9591;52.742;13.650;2024-02-21T06:10:22;101097.81;;;20.18;40.81
18918;BME280;9591;52.742;13.650;2024-02-21T06:13:09;101092.50;;;19.77;41.68
18918;BME280;9591;52.742;13.650;2024-02-21T06:15:56;101100.91;;;21.54;38.40
18918;BME280;9591;52.742;13.650;2024-02-21T06:18:46;101094.72;;;20.51;39.93
18918;BME280;9591;52.742;13.650;2024-02-21T06:21:32;101098.53;;;20.86;39.22
18918;BME280;9591;52.742;13.650;2024-02-21T06:24:19;101094.97;;;20.99;38.58
18918;BME280;9591;52.742;13.650;2024-02-21T06:27:07;101097.50;;;21.27;38.72
18918;BME280;9591;52.742;13.650;2024-02-21T06:29:55;101093.59;;;20.14;40.66
18918;BME280;9591;52.742;13.650;2024-02-21T06:32:43;101104.28;;;20.42;39.84
18918;BME280;9591;52.742;13.650;2024-02-21T06:35:33;101103.69;;;20.37;39.78
18918;BME280;9591;52.742;13.650;2024-02-21T06:38:20;101112.88;;;21.00;39.08
18918;BME280;9591;52.742;13.650;2024-02-21T06:41:14;101101.38;;;21.36;38.48
18918;BME280;9591;52.742;13.650;2024-02-21T06:44:01;101104.56;;;20.38;39.48
18918;BME280;9591;52.742;13.650;2024-02-21T06:46:48;101102.63;;;21.17;38.72
18918;BME280;9591;52.742;13.650;2024-02-21T06:49:35;101103.91;;;20.86;39.27
18918;BME280;9591;52.742;13.650;2024-02-21T06:52:24;101108.47;;;21.24;38.76
18918;BME280;9591;52.742;13.650;2024-02-21T06:55:12;101106.22;;;20.40;39.99
18918;BME280;9591;52.742;13.650;2024-02-21T06:57:58;101098.69;;;21.23;38.49
18918;BME280;9591;52.742;13.650;2024-02-21T07:00:45;101112.31;;;20.94;39.16
18918;BME280;9591;52.742;13.650;2024-02-21T07:03:32;101105.16;;;20.02;40.98
18918;BME280;9591;52.742;13.650;2024-02-21T07:06:19;101112.53;;;20.91;39.41
18918;BME280;9591;52.742;13.650;2024-02-21T07:09:07;101106.31;;;20.39;40.16
18918;BME280;9591;52.742;13.650;2024-02-21T07:11:54;101101.22;;;20.74;39.56
18918;BME280;9591;52.742;13.650;2024-02-21T07:14:42;101108.38;;;20.48;40.01
18918;BME280;9591;52.742;13.650;2024-02-21T07:17:29;101110.66;;;20.54;39.81
18918;BME280;9591;52.742;13.650;2024-02-21T07:20:16;101105.97;;;20.16;40.83
18918;BME280;9591;52.742;13.650;2024-02-21T07:23:03;101103.63;;;20.39;40.47
18918;BME280;9591;52.742;13.650;2024-02-21T07:25:51;101091.41;;;20.85;39.64
18918;BME280;9591;52.742;13.650;2024-02-21T07:28:39;101098.53;;;20.99;39.03
18918;BME280;9591;52.742;13.650;2024-02-21T07:31:28;101092.13;;;19.26;42.41
18918;BME280;9591;52.742;13.650;2024-02-21T07:34:20;101091.78;;;20.14;41.21
18918;BME280;9591;52.742;13.650;2024-02-21T07:37:07;101095.19;;;20.95;39.01
18918;BME280;9591;52.742;13.650;2024-02-21T07:39:55;101087.41;;;20.53;40.23
18918;BME280;9591;52.742;13.650;2024-02-21T07:42:45;101090.25;;;20.64;39.63
18918;BME280;9591;52.742;13.650;2024-02-21T07:45:37;101075.41;;;21.22;38.65
18918;BME280;9591;52.742;13.650;2024-02-21T07:48:25;101085.59;;;19.44;41.72
18918;BME280;9591;52.742;13.650;2024-02-21T07:51:12;101089.00;;;20.43;40.59
18918;BME280;9591;52.742;13.650;2024-02-21T07:53:59;101091.34;;;21.25;39.08
18918;BME280;9591;52.742;13.650;2024-02-21T07:56:45;101087.63;;;20.23;41.04
18918;BME280;9591;52.742;13.650;2024-02-21T07:59:34;101081.31;;;20.76;40.06
18918;BME280;9591;52.742;13.650;2024-02-21T08:02:21;101086.16;;;19.49;43.07
18918;BME280;9591;52.742;13.650;2024-02-21T08:05:08;101074.47;;;20.45;41.01
18918;BME280;9591;52.742;13.650;2024-02-21T08:07:54;101070.09;;;21.46;39.11
18918;BME280;9591;52.742;13.650;2024-02-21T08:10:43;101086.19;;;20.17;41.46
18918;BME280;9591;52.742;13.650;2024-02-21T08:13:30;101078.63;;;21.14;39.61
18918;BME280;9591;52.742;13.650;2024-02-21T08:16:18;101091.09;;;20.90;39.56
18918;BME280;9591;52.742;13.650;2024-02-21T08:19:05;101073.53;;;20.59;40.17
18918;BME280;9591;52.742;13.650;2024-02-21T08:21:52;101079.38;;;20.91;39.62
18918;BME280;9591;52.742;13.650;2024-02-21T08:24:39;101079.25;;;20.27;40.72
18918;BME280;9591;52.742;13.650;2024-02-21T08:27:26;101071.47;;;20.50;40.08
18918;BME280;9591;52.742;13.650;2024-02-21T08:30:13;101076.91;;;20.36;39.89
18918;BME280;9591;52.742;13.650;2024-02-21T08:33:02;101069.19;;;20.17;40.26
18918;BME280;9591;52.742;13.650;2024-02-21T08:35:49;101077.94;;;21.62;38.50
18918;BME280;9591;52.742;13.650;2024-02-21T08:38:36;101071.28;;;20.66;39.97
18918;BME280;9591;52.742;13.650;2024-02-21T08:41:23;101090.88;;;20.80;39.92
18918;BME280;9591;52.742;13.650;2024-02-21T08:44:30;101080.97;;;21.19;39.15
18918;BME280;9591;52.742;13.650;2024-02-21T08:47:17;101077.09;;;21.48;38.61
18918;BME280;9591;52.742;13.650;2024-02-21T08:50:06;101080.97;;;20.81;39.46
18918;BME280;9591;52.742;13.650;2024-02-21T08:53:10;101076.06;;;21.25;38.95
18918;BME280;9591;52.742;13.650;2024-02-21T08:55:58;101077.44;;;20.68;39.54
18918;BME280;9591;52.742;13.650;2024-02-21T08:58:45;101079.47;;;21.15;38.50
18918;BME280;9591;52.742;13.650;2024-02-21T09:01:32;101081.19;;;21.16;38.94
18918;BME280;9591;52.742;13.650;2024-02-21T09:04:20;101075.75;;;22.03;37.04
18918;BME280;9591;52.742;13.650;2024-02-21T09:07:09;101071.84;;;21.71;37.81
18918;BME280;9591;52.742;13.650;2024-02-21T09:09:56;101077.81;;;20.49;39.97
18918;BME280;9591;52.742;13.650;2024-02-21T09:12:43;101072.38;;;21.39;38.52
18918;BME280;9591;52.742;13.650;2024-02-21T09:15:29;101062.69;;;21.37;38.74
18918;BME280;9591;52.742;13.650;2024-02-21T09:18:18;101054.72;;;21.35;38.79
18918;BME280;9591;52.742;13.650;2024-02-21T09:21:05;101054.44;;;21.64;38.23
18918;BME280;9591;52.742;13.650;2024-02-21T09:23:53;101064.09;;;21.30;38.71
18918;BME280;9591;52.742;13.650;2024-02-21T09:26:44;101056.84;;;21.43;38.10
18918;BME280;9591;52.742;13.650;2024-02-21T09:29:31;101054.44;;;21.64;37.68
18918;BME280;9591;52.742;13.650;2024-02-21T09:32:18;101055.44;;;22.10;37.00
18918;BME280;9591;52.742;13.650;2024-02-21T09:35:06;101047.16;;;22.71;35.90
18918;BME280;9591;52.742;13.650;2024-02-21T09:37:52;101034.66;;;22.23;36.73
18918;BME280;9591;52.742;13.650;2024-02-21T09:40:41;101044.56;;;21.13;38.47
18918;BME280;9591;52.742;13.650;2024-02-21T09:43:29;101048.66;;;21.44;38.32
18918;BME280;9591;52.742;13.650;2024-02-21T09:46:17;101051.09;;;21.84;37.46
18918;BME280;9591;52.742;13.650;2024-02-21T09:49:19;101041.97;;;23.03;35.54
18918;BME280;9591;52.742;13.650;2024-02-21T09:52:19;101050.97;;;22.22;37.01
18918;BME280;9591;52.742;13.650;2024-02-21T09:55:07;101041.59;;;22.96;35.55
18918;BME280;9591;52.742;13.650;2024-02-21T09:57:58;101035.81;;;22.89;35.77
18918;BME280;9591;52.742;13.650;2024-02-21T10:00:45;101013.22;;;22.79;35.38
18918;BME280;9591;52.742;13.650;2024-02-21T10:03:32;101036.91;;;22.87;35.34
18918;BME280;9591;52.742;13.650;2024-02-21T10:06:20;101036.94;;;23.32;35.33
18918;BME280;9591;52.742;13.650;2024-02-21T10:09:07;101028.44;;;22.80;36.42
18918;BME280;9591;52.742;13.650;2024-02-21T10:11:55;101034.25;;;22.17;36.71
18918;BME280;9591;52.742;13.650;2024-02-21T10:14:43;101041.91;;;21.86;37.46
18918;BME280;9591;52.742;13.650;2024-02-21T10:17:30;101039.97;;;21.28;37.63
18918;BME280;9591;52.742;13.650;2024-02-21T10:20:17;101046.09;;;21.67;37.74
18918;BME280;9591;52.742;13.650;2024-02-21T10:23:04;101031.28;;;22.44;36.61
18918;BME280;9591;52.742;13.650;2024-02-21T10:25:54;101040.25;;;22.55;36.66
18918;BME280;9591;52.742;13.650;2024-02-21T10:28:41;101042.03;;;22.33;36.53
18918;BME280;9591;52.742;13.650;2024-02-21T10:31:31;101038.72;;;22.29;36.67
18918;BME280;9591;52.742;13.650;2024-02-21T10:34:19;101039.00;;;22.83;35.53
18918;BME280;9591;52.742;13.650;2024-02-21T10:37:07;101040.53;;;21.57;37.49
18918;BME280;9591;52.742;13.650;2024-02-21T10:39:54;101044.25;;;21.67;37.74
18918;BME280;9591;52.742;13.650;2024-02-21T10:42:41;101041.34;;;21.94;37.26
18918;BME280;9591;52.742;13.650;2024-02-21T10:45:30;101036.06;;;21.92;37.22
18918;BME280;9591;52.742;13.650;2024-02-21T10:48:24;101036.28;;;22.83;35.54
18918;BME280;9591;52.742;13.650;2024-02-21T10:51:16;101035.84;;;23.23;35.13
18918;BME280;9591;52.742;13.650;2024-02-21T10:54:17;101028.69;;;22.07;36.54
18918;BME280;9591;52.742;13.650;2024-02-21T10:57:10;101014.94;;;22.34;36.15
18918;BME280;9591;52.742;13.650;2024-02-21T10:59:59;101010.22;;;22.49;36.21
18918;BME280;9591;52.742;13.650;2024-02-21T11:02:49;101000.16;;;22.73;35.96
18918;BME280;9591;52.742;13.650;2024-02-21T11:05:38;101000.75;;;22.66;35.89
18918;BME280;9591;52.742;13.650;2024-02-21T11:08:25;101005.28;;;22.08;37.24
18918;BME280;9591;52.742;13.650;2024-02-21T11:11:13;100993.78;;;21.93;37.42
18918;BME280;9591;52.742;13.650;2024-02-21T11:14:18;100997.19;;;22.08;37.41
18918;BME280;9591;52.742;13.650;2024-02-21T11:17:14;100985.94;;;22.71;36.45
18918;BME280;9591;52.742;13.650;2024-02-21T11:20:11;100987.41;;;22.75;36.16
18918;BME280;9591;52.742;13.650;2024-02-21T11:22:59;100982.94;;;22.30;35.64
18918;BME280;9591;52.742;13.650;2024-02-21T11:25:47;100976.47;;;21.84;37.67
18918;BME280;9591;52.742;13.650;2024-02-21T11:28:34;100969.03;;;22.92;35.76
18918;BME280;9591;52.742;13.650;2024-02-21T11:31:22;100967.72;;;23.51;34.95
18918;BME280;9591;52.742;13.650;2024-02-21T11:34:09;100958.53;;;23.86;34.37
18918;BME280;9591;52.742;13.650;2024-02-21T11:36:56;100965.41;;;21.76;37.50
18918;BME280;9591;52.742;13.650;2024-02-21T11:39:46;100962.56;;;21.43;38.42
18918;BME280;9591;52.742;13.650;2024-02-21T11:42:35;100958.63;;;22.18;37.23
18918;BME280;9591;52.742;13.650;2024-02-21T11:45:25;100953.06;;;23.22;35.52
18918;BME280;9591;52.742;13.650;2024-02-21T11:48:12;100953.94;;;22.89;36.25
18918;BME280;9591;52.742;13.650;2024-02-21T11:50:59;100941.88;;;21.43;38.59
18918;BME280;9591;52.742;13.650;2024-02-21T11:53:46;100934.47;;;21.93;37.52
18918;BME280;9591;52.742;13.650;2024-02-21T11:56:46;100928.41;;;23.04;36.25
18918;BME280;9591;52.742;13.650;2024-02-21T11:59:34;100927.44;;;21.79;37.89
18918;BME280;9591;52.742;13.650;2024-02-21T12:02:21;100914.91;;;22.82;36.21
18918;BME280;9591;52.742;13.650;2024-02-21T12:05:08;100917.81;;;22.34;36.84
18918;BME280;9591;52.742;13.650;2024-02-21T12:07:55;100907.41;;;22.52;36.24
18918;BME280;9591;52.742;13.650;2024-02-21T12:10:44;100904.59;;;23.84;34.64
18918;BME280;9591;52.742;13.650;2024-02-21T12:13:38;100898.75;;;23.68;34.73
18918;BME280;9591;52.742;13.650;2024-02-21T12:16:25;100908.38;;;23.07;35.20
18918;BME280;9591;52.742;13.650;2024-02-21T12:19:13;100913.53;;;23.21;35.07
18918;BME280;9591;52.742;13.650;2024-02-21T12:22:02;100913.78;;;23.07;35.11
18918;BME280;9591;52.742;13.650;2024-02-21T12:24:52;100908.50;;;23.48;34.78
18918;BME280;9591;52.742;13.650;2024-02-21T12:27:38;100897.59;;;22.62;35.85
18918;BME280;9591;52.742;13.650;2024-02-21T12:30:27;100882.84;;;23.43;34.62
18918;BME280;9591;52.742;13.650;2024-02-21T12:33:15;100884.34;;;23.79;34.14
18918;BME280;9591;52.742;13.650;2024-02-21T12:36:03;100869.03;;;24.10;34.04
18918;BME280;9591;52.742;13.650;2024-02-21T12:38:50;100873.09;;;24.46;33.45
18918;BME280;9591;52.742;13.650;2024-02-21T12:41:37;100867.97;;;24.22;33.58
18918;BME280;9591;52.742;13.650;2024-02-21T12:44:26;100864.34;;;23.91;33.68
18918;BME280;9591;52.742;13.650;2024-02-21T12:47:14;100870.22;;;22.67;34.69
18918;BME280;9591;52.742;13.650;2024-02-21T12:50:02;100865.03;;;23.40;33.98
18918;BME280;9591;52.742;13.650;2024-02-21T12:52:53;100876.06;;;23.60;34.27
18918;BME280;9591;52.742;13.650;2024-02-21T12:55:39;100860.38;;;24.16;33.60
18918;BME280;9591;52.742;13.650;2024-02-21T12:58:26;100860.72;;;24.23;33.03
18918;BME280;9591;52.742;13.650;2024-02-21T13:01:17;100853.78;;;24.09;33.43
18918;BME280;9591;52.742;13.650;2024-02-21T13:04:05;100856.28;;;23.48;34.16
18918;BME280;9591;52.742;13.650;2024-02-21T13:06:53;100851.31;;;22.55;36.19
18918;BME280;9591;52.742;13.650;2024-02-21T13:09:40;100851.28;;;24.17;33.91
18918;BME280;9591;52.742;13.650;2024-02-21T13:12:27;100845.88;;;24.47;33.05
18918;BME280;9591;52.742;13.650;2024-02-21T13:15:15;100840.03;;;23.38;34.28
18918;BME280;9591;52.742;13.650;2024-02-21T13:18:03;100834.56;;;24.33;32.87
18918;BME280;9591;52.742;13.650;2024-02-21T13:20:52;100836.38;;;24.53;33.08
18918;BME280;9591;52.742;13.650;2024-02-21T13:23:39;100834.13;;;24.07;32.94
18918;BME280;9591;52.742;13.650;2024-02-21T13:26:27;100827.66;;;24.19;33.18
18918;BME280;9591;52.742;13.650;2024-02-21T13:29:13;100820.56;;;23.97;33.24
18918;BME280;9591;52.742;13.650;2024-02-21T13:32:00;100818.06;;;24.36;32.19
18918;BME280;9591;52.742;13.650;2024-02-21T13:34:47;100806.88;;;25.00;31.62
18918;BME280;9591;52.742;13.650;2024-02-21T13:37:36;100805.03;;;24.20;32.90
18918;BME280;9591;52.742;13.650;2024-02-21T13:40:23;100806.75;;;25.11;31.83
18918;BME280;9591;52.742;13.650;2024-02-21T13:43:11;100806.16;;;25.56;30.97
18918;BME280;9591;52.742;13.650;2024-02-21T13:45:58;100806.72;;;24.21;32.81
18918;BME280;9591;52.742;13.650;2024-02-21T13:48:45;100810.16;;;24.54;32.49
18918;BME280;9591;52.742;13.650;2024-02-21T13:51:33;100805.63;;;24.64;32.36
18918;BME280;9591;52.742;13.650;2024-02-21T13:54:22;100809.41;;;24.92;31.86
18918;BME280;9591;52.742;13.650;2024-02-21T13:57:09;100809.16;;;23.73;33.75
18918;BME280;9591;52.742;13.650;2024-02-21T13:59:56;100805.69;;;24.12;32.68
18918;BME280;9591;52.742;13.650;2024-02-21T14:02:44;100801.63;;;24.58;32.74
18918;BME280;9591;52.742;13.650;2024-02-21T14:05:31;100790.91;;;24.97;31.94
18918;BME280;9591;52.742;13.650;2024-02-21T14:08:18;100802.06;;;24.63;32.36
18918;BME280;9591;52.742;13.650;2024-02-21T14:11:07;100801.47;;;24.19;32.64
18918;BME280;9591;52.742;13.650;2024-02-21T14:13:53;100791.13;;;24.84;31.78
18918;BME280;9591;52.742;13.650;2024-02-21T14:16:43;100782.91;;;25.14;31.67
18918;BME280;9591;52.742;13.650;2024-02-21T14:19:30;100787.19;;;25.17;31.29
18918;BME280;9591;52.742;13.650;2024-02-21T14:22:17;100787.34;;;24.96;31.42
18918;BME280;9591;52.742;13.650;2024-02-21T14:25:04;100784.06;;;24.52;32.47
18918;BME280;9591;52.742;13.650;2024-02-21T14:27:54;100782.41;;;24.00;32.99
18918;BME280;9591;52.742;13.650;2024-02-21T14:30:43;100776.50;;;24.96;31.99
18918;BME280;9591;52.742;13.650;2024-02-21T14:33:30;100775.94;;;25.31;31.44
18918;BME280;9591;52.742;13.650;2024-02-21T14:36:17;100775.94;;;25.02;31.96
18918;BME280;9591;52.742;13.650;2024-02-21T14:39:04;100774.78;;;25.24;31.84